Time;durP1;ratioP1;P1;durP2;ratioP2;P2;SDS_P1;SDS_P2;PMS_P1;PMS_P2;Temp;Humidity;BMP_temperature;BMP_pressure;BME280_temperature;BME280_humidity;BME280_pressure;Samples;Min_cycle;Max_cycle;Signal;HPM_P1;HPM_P2
2022/04/09 00:01:21;;;;;;;21.60;7.80;;;;;;;8.80;49.78;96762.25;106042;1274;108407;-65
2022/04/09 00:03:54;;;;;;;22.70;8.50;;;;;;;8.80;50.10;96763.67;106098;1274;97951;-67
2022/04/09 00:06:23;;;;;;;21.20;8.30;;;;;;;8.77;50.10;96762.34;106192;1274;97895;-67
2022/04/09 00:08:54;;;;;;;20.70;7.50;;;;;;;8.74;50.22;96756.27;106129;1274;112117;-66
2022/04/09 00:11:25;;;;;;;17.90;7.90;;;;;;;8.72;50.32;96749.27;106112;1274;97819;-69
2022/04/09 00:13:53;;;;;;;20.30;8.10;;;;;;;8.68;50.22;96743.27;106108;1271;108384;-67
2022/04/09 00:16:23;;;;;;;22.70;8.60;;;;;;;8.67;50.45;96742.73;106064;1274;97960;-66
2022/04/09 00:18:54;;;;;;;19.00;8.10;;;;;;;8.63;50.47;96740.09;106142;1274;97850;-66
2022/04/09 00:21:22;;;;;;;21.30;8.60;;;;;;;8.62;50.84;96739.98;106106;1274;111340;-67
2022/04/09 00:23:51;;;;;;;22.10;8.80;;;;;;;8.62;50.66;96738.60;106123;1274;98006;-66
2022/04/09 00:26:21;;;;;;;20.60;8.80;;;;;;;8.62;50.52;96735.95;106147;1274;108330;-66
2022/04/09 00:28:49;;;;;;;20.00;9.20;;;;;;;8.61;50.80;96729.85;106204;1274;97973;-67
2022/04/09 00:31:18;;;;;;;23.20;9.50;;;;;;;8.60;50.94;96730.84;106217;1274;95377;-66
2022/04/09 00:33:47;;;;;;;21.50;9.70;;;;;;;8.60;50.93;96732.98;106143;1274;110826;-67
2022/04/09 00:36:17;;;;;;;19.80;8.50;;;;;;;8.58;50.89;96729.84;106180;1274;96366;-67
2022/04/09 00:38:48;;;;;;;21.10;8.60;;;;;;;8.57;51.04;96724.48;106202;1274;108230;-67
2022/04/09 00:41:16;;;;;;;22.80;9.60;;;;;;;8.54;50.94;96730.95;105988;1274;97849;-67
2022/04/09 00:43:45;;;;;;;20.40;9.60;;;;;;;8.52;51.15;96733.05;106120;1274;97926;-67
2022/04/09 00:46:15;;;;;;;20.40;8.60;;;;;;;8.50;51.20;96736.98;106132;1274;112189;-67
2022/04/09 00:48:48;;;;;;;21.50;10.70;;;;;;;8.49;51.46;96732.65;105989;1274;97830;-67
2022/04/09 00:51:16;;;;;;;20.00;9.20;;;;;;;8.47;51.42;96722.95;106083;1274;108406;-66
2022/04/09 00:53:51;;;;;;;21.70;9.30;;;;;;;8.43;51.89;96726.30;106057;1274;98008;-66
2022/04/09 00:56:25;;;;;;;22.10;9.10;;;;;;;8.42;51.80;96730.89;106048;1274;98012;-67
2022/04/09 00:58:56;;;;;;;21.40;8.90;;;;;;;8.40;51.83;96737.80;106187;1274;111165;-66
2022/04/09 01:01:32;;;;;;;22.00;10.30;;;;;;;8.37;52.11;96729.94;106012;1274;96625;-67
2022/04/09 01:04:08;;;;;;;20.50;9.20;;;;;;;8.35;52.07;96717.63;106104;1274;107815;-68
2022/04/09 01:06:39;;;;;;;23.70;10.70;;;;;;;8.36;52.26;96717.17;105998;1274;98225;-67
2022/04/09 01:09:10;;;;;;;23.70;11.20;;;;;;;8.37;52.05;96711.79;106098;1277;97966;-68
2022/04/09 01:11:41;;;;;;;21.10;10.60;;;;;;;8.37;52.38;96705.59;106108;1274;111346;-68
2022/04/09 01:14:15;;;;;;;22.80;10.60;;;;;;;8.36;52.33;96697.77;106052;1274;97855;-66
2022/04/09 01:16:42;;;;;;;24.70;12.10;;;;;;;8.34;52.30;96697.18;106050;1274;108394;-67
2022/04/09 01:19:13;;;;;;;23.60;12.50;;;;;;;8.33;52.46;96698.53;106127;1274;98014;-66
2022/04/09 01:21:42;;;;;;;23.50;11.30;;;;;;;8.29;52.00;96692.14;106164;1274;95281;-66
2022/04/09 01:24:10;;;;;;;25.10;12.00;;;;;;;8.20;52.35;96704.59;106113;1276;112063;-67
2022/04/09 01:26:40;;;;;;;25.00;11.00;;;;;;;8.18;52.37;96721.06;105996;1274;97976;-67
2022/04/09 01:29:09;;;;;;;25.00;11.40;;;;;;;8.16;52.73;96716.81;106047;1274;108816;-67
2022/04/09 01:31:37;;;;;;;24.00;11.20;;;;;;;8.16;52.67;96721.65;106135;1274;97834;-67
2022/04/09 01:34:14;;;;;;;22.70;11.00;;;;;;;8.15;52.88;96720.77;106174;1274;97956;-67
2022/04/09 01:36:44;;;;;;;22.40;10.80;;;;;;;8.16;52.98;96712.45;106225;1274;112627;-65
2022/04/09 01:39:17;;;;;;;23.90;11.50;;;;;;;8.13;53.03;96704.14;106112;1274;96297;-67
2022/04/09 01:41:45;;;;;;;23.70;11.50;;;;;;;8.10;52.88;96709.86;106108;1274;107745;-66
2022/04/09 01:44:17;;;;;;;27.60;11.70;;;;;;;8.09;53.17;96714.89;106152;1274;99020;-67
2022/04/09 01:46:47;;;;;;;22.10;11.50;;;;;;;8.09;53.26;96718.49;105989;1274;97866;-68
2022/04/09 01:49:17;;;;;;;28.30;13.20;;;;;;;8.03;53.26;96723.25;105862;1276;112036;-69
2022/04/09 01:51:49;;;;;;;26.40;13.40;;;;;;;7.94;53.50;96716.21;105999;1274;97899;-67
2022/04/09 01:54:19;;;;;;;26.00;13.00;;;;;;;7.85;53.27;96712.38;105950;1274;107497;-68
2022/04/09 01:56:49;;;;;;;27.50;14.40;;;;;;;7.78;53.32;96703.70;106041;1274;97973;-67
2022/04/09 01:59:17;;;;;;;24.30;12.60;;;;;;;7.74;53.40;96705.23;106050;1274;97886;-67
2022/04/09 02:01:48;;;;;;;25.90;12.90;;;;;;;7.73;53.67;96718.27;106051;1274;112646;-68
2022/04/09 02:04:20;;;;;;;25.00;12.90;;;;;;;7.69;53.67;96720.46;106053;1274;97877;-68
2022/04/09 02:06:51;;;;;;;27.80;13.50;;;;;;;7.63;53.90;96724.73;105953;1274;108396;-66
2022/04/09 02:09:23;;;;;;;29.30;13.70;;;;;;;7.60;53.81;96735.89;106048;1274;96370;-67
2022/04/09 02:11:52;;;;;;;27.60;12.70;;;;;;;7.58;53.73;96745.27;105969;1274;98761;-66
2022/04/09 02:14:22;;;;;;;26.80;12.70;;;;;;;7.55;53.81;96748.91;106024;1274;111073;-66
2022/04/09 02:16:50;;;;;;;22.70;11.20;;;;;;;7.52;53.94;96748.05;106076;1274;97962;-68
2022/04/09 02:19:18;;;;;;;26.60;12.00;;;;;;;7.48;53.93;96753.67;106115;1274;108347;-67
2022/04/09 02:21:48;;;;;;;26.20;12.50;;;;;;;7.46;54.23;96759.30;106139;1275;97991;-65
2022/04/09 02:24:18;;;;;;;29.00;12.70;;;;;;;7.45;54.49;96763.50;106137;1274;97929;-66
2022/04/09 02:26:48;;;;;;;26.70;12.50;;;;;;;7.44;54.27;96764.66;106167;1274;112019;-66
2022/04/09 02:29:18;;;;;;;23.90;11.90;;;;;;;7.43;54.73;96769.34;106030;1274;97966;-67
2022/04/09 02:31:46;;;;;;;25.00;12.10;;;;;;;7.44;54.34;96769.62;106030;1276;108322;-67
2022/04/09 02:34:17;;;;;;;24.80;12.50;;;;;;;7.44;54.47;96771.00;105971;1276;97877;-67
2022/04/09 02:36:45;;;;;;;23.90;12.10;;;;;;;7.44;54.59;96775.02;105967;1274;98082;-67
2022/04/09 02:39:20;;;;;;;24.20;11.40;;;;;;;7.45;54.60;96775.66;105999;1274;111952;-67
2022/04/09 02:41:52;;;;;;;24.30;12.60;;;;;;;7.44;54.71;96770.98;105958;1274;97896;-66
2022/04/09 02:44:21;;;;;;;25.10;12.00;;;;;;;7.41;54.90;96762.12;105984;1274;107731;-67
2022/04/09 02:46:51;;;;;;;24.10;11.30;;;;;;;7.38;54.68;96751.08;105963;1274;97931;-66
2022/04/09 02:49:21;;;;;;;28.50;12.90;;;;;;;7.36;54.91;96759.11;106016;1274;97875;-68
2022/04/09 02:51:49;;;;;;;28.40;11.90;;;;;;;7.31;56.34;96773.31;105970;1274;111755;-69
2022/04/09 02:54:20;;;;;;;28.10;12.40;;;;;;;7.21;55.91;96779.92;105991;1274;96891;-67
2022/04/09 02:56:48;;;;;;;28.40;10.80;;;;;;;7.11;55.35;96769.55;106032;1274;108304;-66
2022/04/09 02:59:19;;;;;;;26.90;11.50;;;;;;;7.05;55.36;96765.56;106006;1274;98536;-64
2022/04/09 03:01:46;;;;;;;25.00;11.70;;;;;;;7.02;55.01;96764.77;106025;1274;97953;-67
2022/04/09 03:04:16;;;;;;;24.70;10.60;;;;;;;7.02;55.69;96757.70;105969;1274;112100;-66
2022/04/09 03:06:46;;;;;;;36.20;12.50;;;;;;;7.01;55.69;96761.52;106027;1274;97589;-65
2022/04/09 03:09:15;;;;;;;23.30;9.80;;;;;;;6.96;55.66;96768.43;106033;1274;107301;-66
2022/04/09 03:11:45;;;;;;;26.60;10.50;;;;;;;6.93;55.71;96770.67;106087;1275;97881;-65
2022/04/09 03:14:14;;;;;;;40.20;11.80;;;;;;;6.92;55.66;96777.67;106137;1274;97892;-67
2022/04/09 03:16:42;;;;;;;23.50;10.00;;;;;;;6.90;55.87;96771.34;106092;1274;112090;-65
2022/04/09 03:19:10;;;;;;;55.60;10.90;;;;;;;6.89;55.79;96770.20;106088;1274;97830;-66
2022/04/09 03:21:40;;;;;;;41.80;11.90;;;;;;;6.85;56.76;96774.05;106043;1274;109406;-67
2022/04/09 03:24:08;;;;;;;26.40;11.40;;;;;;;6.79;56.33;96771.14;106088;1274;97990;-67
2022/04/09 03:26:35;;;;;;;38.60;12.50;;;;;;;6.77;56.33;96767.12;106108;1277;97883;-67
2022/04/09 03:29:04;;;;;;;36.00;12.10;;;;;;;6.76;56.21;96761.86;106150;1274;111707;-66
2022/04/09 03:31:35;;;;;;;25.00;11.80;;;;;;;6.78;56.48;96775.16;106095;1274;96212;-69
2022/04/09 03:34:07;;;;;;;32.80;12.70;;;;;;;6.78;56.24;96776.34;106016;1274;108363;-70
2022/04/09 03:36:38;;;;;;;24.00;11.70;;;;;;;6.78;56.50;96776.91;105983;1274;95299;-66
2022/04/09 03:39:07;;;;;;;25.90;12.50;;;;;;;6.78;56.36;96771.93;104029;1274;2782103;-67
2022/04/09 03:41:35;;;;;;;26.90;12.00;;;;;;;6.82;56.43;96768.41;106126;1274;110764;-68
2022/04/09 03:44:06;;;;;;;24.70;12.50;;;;;;;6.83;56.91;96735.89;106074;1274;97984;-66
2022/04/09 03:46:34;;;;;;;24.60;11.50;;;;;;;6.85;56.83;96737.45;106065;1273;107414;-67
2022/04/09 03:49:04;;;;;;;24.10;11.10;;;;;;;6.88;56.80;96745.31;106026;1274;97965;-67
2022/04/09 03:51:32;;;;;;;23.90;11.20;;;;;;;6.91;56.97;96735.84;106000;1274;97992;-67
2022/04/09 03:54:03;;;;;;;22.90;11.30;;;;;;;6.94;56.97;96732.19;106027;1274;112878;-67
2022/04/09 03:56:32;;;;;;;22.70;11.10;;;;;;;6.98;57.05;96736.61;106074;1274;95209;-68
2022/04/09 03:59:02;;;;;;;24.90;11.70;;;;;;;7.01;57.15;96728.71;106055;1274;108161;-67
2022/04/09 04:01:32;;;;;;;23.20;10.70;;;;;;;7.05;57.15;96719.40;106055;1274;97886;-65
2022/04/09 04:04:05;;;;;;;23.10;10.80;;;;;;;7.07;57.33;96727.24;106094;1274;96438;-66
2022/04/09 04:06:33;;;;;;;24.80;12.80;;;;;;;7.11;57.25;96736.05;106114;1274;111348;-67
2022/04/09 04:09:01;;;;;;;21.70;10.90;;;;;;;7.14;57.24;96735.56;106133;1274;97871;-67
2022/04/09 04:11:30;;;;;;;23.70;12.10;;;;;;;7.14;56.93;96739.60;106060;1274;109194;-68
2022/04/09 04:14:00;;;;;;;23.90;11.50;;;;;;;7.14;57.27;96743.17;106082;1274;97980;-68
2022/04/09 04:16:27;;;;;;;24.50;11.50;;;;;;;7.07;57.26;96732.79;106138;1274;98574;-67
2022/04/09 04:18:58;;;;;;;23.70;11.70;;;;;;;7.02;57.28;96726.34;106134;1274;111991;-65
2022/04/09 04:21:28;;;;;;;21.90;10.60;;;;;;;7.02;57.49;96731.46;106117;1274;99145;-66
2022/04/09 04:23:57;;;;;;;23.40;11.50;;;;;;;7.03;57.32;96739.67;106158;1274;108256;-64
2022/04/09 04:26:26;;;;;;;23.50;11.90;;;;;;;7.02;57.53;96737.42;106073;1274;97826;-65
2022/04/09 04:28:54;;;;;;;25.40;12.20;;;;;;;7.05;57.76;96738.77;106108;1274;96303;-67
2022/04/09 04:31:23;;;;;;;22.50;10.40;;;;;;;7.09;58.13;96733.65;106119;1274;112009;-65
2022/04/09 04:33:54;;;;;;;24.00;11.30;;;;;;;7.11;58.17;96733.73;105978;1274;98057;-68
2022/04/09 04:36:22;;;;;;;21.90;10.80;;;;;;;7.15;58.21;96730.02;106028;1274;108255;-67
2022/04/09 04:38:51;;;;;;;23.20;11.80;;;;;;;7.19;58.31;96726.47;106036;1274;97975;-64
2022/04/09 04:41:19;;;;;;;24.90;12.20;;;;;;;7.23;58.22;96725.77;106100;1274;97882;-66
2022/04/09 04:43:51;;;;;;;25.10;12.80;;;;;;;7.26;58.26;96723.55;106082;1274;110894;-65
2022/04/09 04:46:21;;;;;;;24.80;13.20;;;;;;;7.28;58.29;96726.88;105951;1274;97985;-67
2022/04/09 04:48:48;;;;;;;26.80;14.10;;;;;;;7.31;58.46;96717.40;106080;1274;108604;-68
2022/04/09 04:51:17;;;;;;;26.60;13.90;;;;;;;7.34;58.28;96711.63;106091;1274;96527;-67
2022/04/09 04:53:45;;;;;;;37.40;17.70;;;;;;;7.35;58.26;96705.59;106058;1274;96373;-66
2022/04/09 04:56:13;;;;;;;32.70;18.30;;;;;;;7.34;58.50;96701.05;105932;1274;112040;-66
2022/04/09 04:58:41;;;;;;;40.60;22.70;;;;;;;7.36;58.21;96699.45;105982;1274;97080;-69
2022/04/09 05:01:11;;;;;;;34.10;17.80;;;;;;;7.37;58.13;96695.88;106056;1274;107728;-68
2022/04/09 05:03:39;;;;;;;26.70;13.80;;;;;;;7.35;57.97;96688.33;106039;1274;97942;-66
2022/04/09 05:06:09;;;;;;;27.20;13.80;;;;;;;7.31;58.12;96681.29;106040;1274;95292;-69
2022/04/09 05:08:40;;;;;;;29.30;12.80;;;;;;;7.26;58.31;96675.89;106069;1274;114110;-66
2022/04/09 05:11:08;;;;;;;23.40;11.50;;;;;;;7.24;58.76;96682.70;106121;1274;98145;-69
2022/04/09 05:13:37;;;;;;;24.30;11.30;;;;;;;7.16;59.36;96689.79;106097;1274;108257;-68
2022/04/09 05:16:05;;;;;;;24.80;12.30;;;;;;;7.09;60.30;96683.61;106085;1274;97084;-66
2022/04/09 05:18:35;;;;;;;25.60;12.40;;;;;;;7.02;60.18;96686.55;106042;1274;97888;-67
2022/04/09 05:21:05;;;;;;;27.20;13.40;;;;;;;6.97;59.99;96685.91;106133;1274;112287;-66
2022/04/09 05:23:34;;;;;;;27.50;12.60;;;;;;;6.98;60.17;96690.73;106080;1274;96509;-66
2022/04/09 05:26:02;;;;;;;25.40;13.10;;;;;;;6.98;60.83;96688.84;106054;1274;108384;-66
2022/04/09 05:28:32;;;;;;;26.60;13.30;;;;;;;6.95;61.06;96689.12;105968;1274;97956;-68
2022/04/09 05:31:04;;;;;;;26.60;13.40;;;;;;;6.93;61.74;96689.80;105933;1274;95276;-65
2022/04/09 05:33:33;;;;;;;25.40;12.20;;;;;;;6.94;62.86;96692.38;106069;1274;112103;-66
2022/04/09 05:36:02;;;;;;;27.40;13.40;;;;;;;6.91;64.06;96691.83;106067;1274;97846;-66
2022/04/09 05:38:34;;;;;;;27.40;13.70;;;;;;;6.85;63.37;96683.73;106053;1274;108235;-67
2022/04/09 05:41:02;;;;;;;27.10;13.80;;;;;;;6.84;63.64;96682.40;105947;1274;96298;-66
2022/04/09 05:43:29;;;;;;;29.10;15.00;;;;;;;6.85;64.00;96684.09;105969;1276;97965;-66
2022/04/09 05:46:01;;;;;;;28.60;15.10;;;;;;;6.86;64.41;96680.08;106075;1274;111421;-66
2022/04/09 05:48:29;;;;;;;31.60;15.50;;;;;;;6.86;63.95;96671.83;105955;1276;97964;-66
2022/04/09 05:50:58;;;;;;;29.50;14.80;;;;;;;6.88;63.24;96669.73;105942;1274;108431;-67
2022/04/09 05:53:29;;;;;;;29.50;15.00;;;;;;;6.91;63.26;96669.06;105944;1274;98006;-68
2022/04/09 05:56:00;;;;;;;32.40;17.40;;;;;;;6.95;63.47;96674.62;106100;1274;97939;-68
2022/04/09 05:58:31;;;;;;;31.10;16.40;;;;;;;6.98;63.03;96677.56;105968;1274;112119;-68
2022/04/09 06:01:01;;;;;;;32.00;16.10;;;;;;;7.07;64.05;96665.77;105960;1274;97973;-67
2022/04/09 06:03:32;;;;;;;28.60;14.80;;;;;;;7.14;64.33;96667.17;105977;1274;108317;-66
2022/04/09 06:06:02;;;;;;;25.90;14.20;;;;;;;7.18;63.87;96665.78;106028;1274;96398;-67
2022/04/09 06:08:35;;;;;;;25.20;13.30;;;;;;;7.28;63.82;96662.52;105869;1276;96330;-67
2022/04/09 06:11:06;;;;;;;24.30;11.10;;;;;;;7.42;63.98;96666.11;106038;1274;111982;-65
2022/04/09 06:13:35;;;;;;;23.20;10.20;;;;;;;7.55;64.81;96665.14;106122;1274;97882;-66
2022/04/09 06:16:08;;;;;;;21.00;9.90;;;;;;;7.72;65.33;96659.10;106143;1274;108712;-68
2022/04/09 06:18:38;;;;;;;20.80;9.00;;;;;;;7.87;64.35;96652.10;106164;1274;97939;-67
2022/04/09 06:21:13;;;;;;;20.20;9.00;;;;;;;8.04;64.93;96648.20;106155;1274;97976;-67
2022/04/09 06:23:41;;;;;;;21.00;8.50;;;;;;;8.17;64.48;96652.64;106047;1275;111484;-68
2022/04/09 06:26:09;;;;;;;18.90;7.80;;;;;;;8.31;65.20;96657.56;106112;1274;96594;-66
2022/04/09 06:28:37;;;;;;;13.80;6.10;;;;;;;8.44;65.50;96651.21;105997;1277;108543;-68
2022/04/09 06:31:06;;;;;;;13.80;5.50;;;;;;;8.59;65.78;96634.85;106028;1274;98405;-67
2022/04/09 06:33:34;;;;;;;7.20;3.90;;;;;;;8.78;65.40;96634.36;105980;1277;99021;-68
2022/04/09 06:36:05;;;;;;;6.30;2.90;;;;;;;8.98;66.03;96635.82;106069;1274;112106;-68
2022/04/09 06:38:35;;;;;;;8.10;3.10;;;;;;;9.13;65.51;96639.39;105994;1276;98040;-68
2022/04/09 06:41:03;;;;;;;5.10;2.70;;;;;;;9.28;65.91;96638.80;106125;1274;107734;-68
2022/04/09 06:43:33;;;;;;;6.40;2.90;;;;;;;9.45;66.30;96634.73;106146;1274;98005;-68
2022/04/09 06:46:00;;;;;;;8.40;2.90;;;;;;;9.62;66.27;96639.29;106014;1277;96447;-68
2022/04/09 06:48:30;;;;;;;4.90;3.10;;;;;;;9.83;66.75;96639.68;106053;1274;112031;-68
2022/04/09 06:50:58;;;;;;;7.10;2.50;;;;;;;10.05;67.33;96640.13;106031;1274;97845;-67
2022/04/09 06:53:26;;;;;;;5.30;2.10;;;;;;;10.21;67.21;96636.89;106135;1274;108367;-66
2022/04/09 06:55:56;;;;;;;3.40;2.40;;;;;;;10.29;67.26;96634.34;106091;1274;97883;-67
2022/04/09 06:58:27;;;;;;;7.60;3.00;;;;;;;10.35;67.09;96634.03;106078;1274;96494;-76
2022/04/09 07:00:54;;;;;;;5.10;2.40;;;;;;;10.42;67.03;96633.44;106099;1274;111501;-67
2022/04/09 07:03:23;;;;;;;4.00;2.30;;;;;;;10.46;66.58;96640.84;106087;1274;97861;-65
2022/04/09 07:05:51;;;;;;;6.90;2.40;;;;;;;10.48;66.72;96641.89;106042;1274;106677;-66
2022/04/09 07:08:22;;;;;;;5.10;2.20;;;;;;;10.47;66.32;96645.23;106017;1274;95329;-65
2022/04/09 07:10:50;;;;;;;6.40;2.20;;;;;;;10.46;66.11;96646.68;106128;1274;95255;-64
2022/04/09 07:13:20;;;;;;;5.50;2.50;;;;;;;10.49;66.58;96655.24;106114;1274;112000;-66
2022/04/09 07:15:51;;;;;;;5.00;2.60;;;;;;;10.52;66.37;96652.77;106081;1274;97803;-65
2022/04/09 07:18:21;;;;;;;6.10;2.40;;;;;;;10.54;66.63;96643.11;106090;1274;108330;-65
2022/04/09 07:20:49;;;;;;;4.70;2.20;;;;;;;10.61;66.65;96647.90;106077;1274;97885;-65
2022/04/09 07:23:18;;;;;;;8.40;2.60;;;;;;;10.70;66.59;96652.55;106084;1274;97018;-65
2022/04/09 07:25:48;;;;;;;4.20;2.30;;;;;;;10.85;66.81;96648.11;106099;1274;111973;-65
2022/04/09 07:28:18;;;;;;;6.80;2.70;;;;;;;11.08;67.00;96652.75;106139;1274;97885;-66
2022/04/09 07:30:48;;;;;;;5.60;2.70;;;;;;;11.54;66.98;96656.62;106090;1274;108573;-65
2022/04/09 07:33:17;;;;;;;2.90;2.10;;;;;;;12.10;66.55;96651.09;105996;1274;98566;-66
2022/04/09 07:35:48;;;;;;;6.40;2.80;;;;;;;12.05;66.46;96649.98;106165;1274;97888;-66
2022/04/09 07:38:22;;;;;;;4.80;2.40;;;;;;;12.01;66.44;96648.04;106096;1274;112017;-65
2022/04/09 07:40:50;;;;;;;4.90;2.10;;;;;;;11.94;66.62;96645.06;106148;1274;96991;-66
2022/04/09 07:43:18;;;;;;;5.30;2.30;;;;;;;11.87;66.55;96638.94;106093;1274;108319;-66
2022/04/09 07:45:46;;;;;;;3.40;1.90;;;;;;;11.82;66.42;96629.13;105969;1274;97982;-67
2022/04/09 07:48:14;;;;;;;4.70;2.30;;;;;;;11.80;66.68;96635.74;105984;1275;97739;-67
2022/04/09 07:50:42;;;;;;;5.00;2.30;;;;;;;11.78;66.39;96647.10;105968;1275;111999;-65
2022/04/09 07:53:12;;;;;;;5.00;2.70;;;;;;;11.77;66.47;96652.70;105968;1277;96443;-65
2022/04/09 07:55:42;;;;;;;6.70;2.50;;;;;;;11.75;66.57;96655.91;105971;1274;108431;-65
2022/04/09 07:58:14;;;;;;;4.30;2.40;;;;;;;11.72;66.43;96655.10;105982;1275;97970;-65
2022/04/09 08:00:45;;;;;;;3.10;1.90;;;;;;;11.69;66.28;96659.85;105980;1274;97829;-65
2022/04/09 08:03:19;;;;;;;4.80;2.20;;;;;;;11.67;66.28;96665.26;105955;1275;112015;-65
2022/04/09 08:05:47;;;;;;;6.40;2.60;;;;;;;11.65;66.29;96670.27;105979;1274;96372;-65
2022/04/09 08:08:15;;;;;;;5.10;2.40;;;;;;;11.62;66.37;96679.02;105983;1274;108179;-64
2022/04/09 08:10:46;;;;;;;4.60;2.10;;;;;;;11.62;66.29;96680.57;105951;1274;98083;-65
2022/04/09 08:13:16;;;;;;;5.90;2.20;;;;;;;11.60;66.28;96689.20;105966;1274;95202;-64
2022/04/09 08:15:46;;;;;;;7.70;2.80;;;;;;;11.62;66.36;96700.98;106047;1274;111969;-65
2022/04/09 08:18:19;;;;;;;6.70;3.00;;;;;;;11.61;66.22;96718.13;106168;1274;97889;-66
2022/04/09 08:21:05;;;;;;;8.00;2.50;;;;;;;11.61;66.00;96749.52;106050;1274;108286;-67
2022/04/09 08:23:33;;;;;;;10.40;3.10;;;;;;;11.61;66.28;96805.02;106183;1274;97846;-67
2022/04/09 08:26:01;;;;;;;17.10;6.70;;;;;;;11.57;67.44;96848.34;106181;1274;98011;-68
2022/04/09 08:28:31;;;;;;;19.80;8.20;;;;;;;11.36;66.23;96897.78;106059;1274;112006;-66
2022/04/09 08:31:07;;;;;;;20.90;8.20;;;;;;;11.01;66.32;96915.06;106118;1274;97116;-65
2022/04/09 08:33:35;;;;;;;10.80;5.20;;;;;;;10.59;66.03;96910.78;106114;1274;107572;-65
2022/04/09 08:36:04;;;;;;;12.20;5.30;;;;;;;10.19;65.80;96924.34;105990;1274;97860;-65
2022/04/09 08:38:32;;;;;;;13.20;5.10;;;;;;;9.85;65.93;96947.98;106034;1274;97864;-68
2022/04/09 08:41:03;;;;;;;10.90;4.60;;;;;;;9.60;65.87;96975.20;105998;1274;112025;-68
2022/04/09 08:43:34;;;;;;;9.60;4.50;;;;;;;9.32;65.74;96994.92;106004;1275;97896;-68
2022/04/09 08:46:03;;;;;;;9.10;3.80;;;;;;;9.10;66.44;96993.30;106030;1274;107521;-69
2022/04/09 08:48:32;;;;;;;6.60;3.30;;;;;;;8.86;66.93;97004.06;105964;1274;97979;-67
2022/04/09 08:51:00;;;;;;;8.60;3.20;;;;;;;8.68;66.56;97011.45;105950;1274;97975;-69
2022/04/09 08:53:49;;;;;;;4.20;2.30;;;;;;;8.54;66.36;97024.33;105913;1274;112044;-69
2022/04/09 08:56:18;;;;;;;4.10;2.30;;;;;;;8.40;66.03;97046.33;105939;1274;97904;-68
2022/04/09 08:58:46;;;;;;;7.00;2.90;;;;;;;8.25;66.41;97055.83;105824;1277;108413;-66
2022/04/09 09:01:14;;;;;;;7.30;2.80;;;;;;;8.16;66.29;97069.08;105928;1274;96630;-69
2022/04/09 09:03:42;;;;;;;5.80;2.70;;;;;;;8.09;66.04;97081.89;105900;1274;97883;-69
2022/04/09 09:06:27;;;;;;;5.10;2.80;;;;;;;8.02;66.56;97095.80;105940;1274;112096;-69
2022/04/09 09:08:56;;;;;;;7.70;3.60;;;;;;;7.88;65.96;97107.29;105853;1274;96759;-69
2022/04/09 09:11:26;;;;;;;4.90;2.80;;;;;;;7.81;66.10;97110.59;106044;1274;107749;-68
2022/04/09 09:13:57;;;;;;;6.00;2.80;;;;;;;7.74;66.08;97121.17;106006;1274;97993;-70
2022/04/09 09:16:28;;;;;;;6.70;2.60;;;;;;;7.67;66.07;97122.88;106010;1274;95426;-69
2022/04/09 09:18:59;;;;;;;4.90;2.50;;;;;;;7.60;66.42;97135.61;105932;1274;111405;-68
2022/04/09 09:21:28;;;;;;;8.20;2.90;;;;;;;7.52;66.05;97149.20;105937;1274;97844;-70
2022/04/09 09:24:18;;;;;;;8.40;2.80;;;;;;;7.42;66.77;97160.20;106013;1274;108371;-68
2022/04/09 09:26:56;;;;;;;7.30;2.70;;;;;;;7.30;65.91;97177.15;106134;1274;97908;-68
2022/04/09 09:29:27;;;;;;;7.20;2.90;;;;;;;7.21;66.74;97189.39;106114;1274;97846;-68
2022/04/09 09:31:58;;;;;;;6.60;3.00;;;;;;;7.11;66.64;97196.95;106095;1274;111972;-68
2022/04/09 09:34:28;;;;;;;8.90;3.40;;;;;;;7.04;65.84;97211.89;106125;1274;97889;-70
2022/04/09 09:36:57;;;;;;;7.10;3.10;;;;;;;6.98;66.10;97231.94;106134;1274;107808;-69
2022/04/09 09:39:27;;;;;;;8.10;3.50;;;;;;;6.91;66.10;97243.06;106064;1275;99744;-68
2022/04/09 09:42:04;;;;;;;6.00;2.60;;;;;;;6.82;66.39;97253.37;105939;1275;97776;-68
2022/04/09 09:44:43;;;;;;;7.80;3.30;;;;;;;6.75;66.04;97260.34;106052;1274;111535;-68
2022/04/09 09:47:14;;;;;;;6.80;3.00;;;;;;;6.68;66.17;97272.58;105992;1274;97827;-70
2022/04/09 09:49:58;;;;;;;16.00;4.40;;;;;;;6.62;66.30;97286.45;105946;1274;107852;-69
2022/04/09 09:52:32;;;;;;;12.80;4.70;;;;;;;6.58;66.10;97303.52;106003;1274;97973;-68
2022/04/09 09:55:10;;;;;;;13.50;4.40;;;;;;;6.51;66.20;97322.73;105980;1274;96417;-68
2022/04/09 09:57:42;;;;;;;11.60;3.70;;;;;;;6.45;66.27;97342.84;105903;1274;112019;-66
2022/04/09 10:00:13;;;;;;;13.00;4.00;;;;;;;6.38;66.14;97347.91;106007;1274;97865;-68
2022/04/09 10:02:44;;;;;;;8.20;3.10;;;;;;;6.32;66.37;97364.29;105962;1275;107804;-67
2022/04/09 10:05:15;;;;;;;9.30;3.30;;;;;;;6.22;66.16;97382.31;105927;1274;97946;-67
2022/04/09 10:07:45;;;;;;;8.10;3.00;;;;;;;6.14;66.61;97387.62;105926;1275;96444;-68
2022/04/09 10:10:13;;;;;;;10.40;3.30;;;;;;;6.00;66.12;97401.02;105954;1274;112408;-67
2022/04/09 10:12:42;;;;;;;8.10;3.60;;;;;;;5.88;67.25;97414.96;106074;1274;97960;-67
2022/04/09 10:15:14;;;;;;;9.10;4.10;;;;;;;5.72;67.09;97429.04;106004;1274;108430;-66
2022/04/09 10:17:44;;;;;;;10.50;3.80;;;;;;;5.55;67.21;97439.14;106017;1274;96339;-69
2022/04/09 10:20:12;;;;;;;8.30;4.00;;;;;;;5.43;66.85;97449.81;105988;1274;97781;-69
2022/04/09 10:22:45;;;;;;;9.40;4.00;;;;;;;5.32;67.64;97451.98;106031;1274;111810;-68
2022/04/09 10:25:17;;;;;;;10.80;4.70;;;;;;;5.23;67.01;97458.49;105889;1274;98340;-68
2022/04/09 10:27:52;;;;;;;13.10;5.30;;;;;;;5.19;66.84;97467.77;107825;1274;106507;-68
2022/04/09 10:30:22;;;;;;;11.80;5.00;;;;;;;5.15;67.10;97480.16;107917;1274;96059;-66
2022/04/09 10:32:57;;;;;;;11.50;4.70;;;;;;;5.15;66.81;97490.75;107937;1273;95977;-67
2022/04/09 10:35:31;;;;;;;17.50;5.40;;;;;;;5.16;66.96;97501.23;107809;1274;111157;-68
2022/04/09 10:38:09;;;;;;;14.00;5.60;;;;;;;5.15;67.50;97509.19;105913;1274;96347;-67
2022/04/09 10:40:43;;;;;;;17.30;7.00;;;;;;;5.12;67.40;97524.15;105985;1274;108456;-68
2022/04/09 10:43:21;;;;;;;17.30;6.80;;;;;;;5.08;67.41;97536.80;106065;1274;97870;-69
2022/04/09 10:46:00;;;;;;;15.00;5.50;;;;;;;5.06;67.09;97534.80;106049;1274;97970;-68
2022/04/09 10:48:33;;;;;;;17.60;6.80;;;;;;;5.07;67.47;97543.50;105993;1274;112010;-68
2022/04/09 10:51:07;;;;;;;18.80;7.10;;;;;;;5.12;67.03;97552.47;106027;1275;97760;-67
2022/04/09 10:53:39;;;;;;;19.50;7.00;;;;;;;5.15;67.32;97546.77;106038;1274;107956;-66
2022/04/09 10:56:32;;;;;;;19.30;7.50;;;;;;;5.20;67.20;97552.06;106053;1274;97031;-66
2022/04/09 10:59:18;;;;;;;16.40;6.50;;;;;;;5.20;67.14;97566.29;106071;1274;97965;-68
2022/04/09 11:01:46;;;;;;;15.80;6.00;;;;;;;5.20;66.90;97570.29;106085;1274;111915;-67
2022/04/09 11:04:34;;;;;;;20.50;8.30;;;;;;;5.20;67.50;97579.44;106126;1274;97924;-67
2022/04/09 11:07:12;;;;;;;18.50;6.70;;;;;;;5.11;67.67;97583.48;106035;1274;107826;-67
2022/04/09 11:09:59;;;;;;;15.20;6.00;;;;;;;5.07;67.76;97585.71;106145;1274;98001;-67
2022/04/09 11:12:43;;;;;;;12.20;5.10;;;;;;;4.99;68.04;97587.13;106181;1274;97864;-67
2022/04/09 11:15:16;;;;;;;11.60;4.90;;;;;;;4.96;67.72;97593.31;106032;1274;111381;-67
2022/04/09 11:17:47;;;;;;;;;;;;;;;4.95;67.51;97592.36;106109;1274;96394;-69
2022/04/09 11:20:23;;;;;;;9.40;4.20;;;;;;;4.95;67.84;97594.45;106065;1274;108291;-69
2022/04/09 11:22:56;;;;;;;10.50;4.60;;;;;;;4.94;67.71;97602.78;105962;1274;97910;-70
2022/04/09 11:25:28;;;;;;;8.00;4.30;;;;;;;4.91;67.71;97602.30;106089;1274;95172;-69
2022/04/09 11:28:16;;;;;;;10.70;4.40;;;;;;;4.90;67.58;97602.69;105988;1274;111738;-68
2022/04/09 11:31:01;;;;;;;18.40;6.30;;;;;;;4.91;67.29;97605.59;106092;1274;97896;-66
2022/04/09 11:33:32;;;;;;;13.00;5.40;;;;;;;4.97;67.57;97607.67;106010;1274;107813;-69
2022/04/09 11:36:00;;;;;;;9.20;4.80;;;;;;;4.99;67.63;97609.31;106054;1274;97970;-69